ACA1134 CYXU-CYYZ
Flight info
| Callsign | ACA1134 |
|---|---|
| Flight time | 0h 30m |
| Altitude | 11000 |
| Route | NUBER NUBER6 |
| Aircraft | A20N/M-SDE2E3FGHIRWXY/LB1 |
Departure
| Time | 2026-05-03 21:55 |
|---|---|
| Airport | London International Airport (CYXU) |
Arrival
| Time | 2026-05-03 22:26 |
|---|---|
| Airport | Toronto Pearson International Airport (CYYZ) |
| Time | Latitude | Longitude | Altitude | Speed | Heading |
|---|---|---|---|---|---|
| 2026-05-03 21:38 | 43.02917 | -81.14823 | 910 ft | 0 kts | 286° |
| 2026-05-03 21:49 | 43.02915 | -81.14814 | 910 ft | 2 kts | 276° |
| 2026-05-03 21:49 | 43.02915 | -81.14792 | 911 ft | 2 kts | 239° |
| 2026-05-03 21:49 | 43.02923 | -81.14782 | 910 ft | 2 kts | 170° |
| 2026-05-03 21:49 | 43.02934 | -81.14788 | 915 ft | 1 kts | 142° |
| 2026-05-03 21:50 | 43.02935 | -81.14788 | 915 ft | 0 kts | 141° |
| 2026-05-03 21:52 | 43.02903 | -81.14737 | 913 ft | 15 kts | 130° |
| 2026-05-03 21:52 | 43.02808 | -81.14614 | 912 ft | 24 kts | 137° |
| 2026-05-03 21:52 | 43.02662 | -81.14439 | 916 ft | 32 kts | 138° |
| 2026-05-03 21:52 | 43.02478 | -81.14220 | 912 ft | 36 kts | 139° |
| 2026-05-03 21:53 | 43.02339 | -81.14057 | 910 ft | 11 kts | 138° |
| 2026-05-03 21:53 | 43.02328 | -81.13949 | 909 ft | 15 kts | 55° |
| 2026-05-03 21:53 | 43.02425 | -81.13856 | 911 ft | 19 kts | 349° |
| 2026-05-03 21:53 | 43.02462 | -81.13888 | 911 ft | 0 kts | 317° |
| 2026-05-03 21:54 | 43.02663 | -81.14151 | 915 ft | 86 kts | 318° |
| 2026-05-03 21:55 | 43.03311 | -81.14911 | 984 ft | 151 kts | 315° |
| 2026-05-03 21:55 | 43.04182 | -81.15847 | 1585 ft | 163 kts | 314° |
| 2026-05-03 21:55 | 43.05104 | -81.16877 | 2346 ft | 179 kts | 313° |
| 2026-05-03 21:55 | 43.06135 | -81.18033 | 3066 ft | 203 kts | 313° |
| 2026-05-03 21:56 | 43.07392 | -81.19240 | 3731 ft | 245 kts | 329° |
| 2026-05-03 21:56 | 43.09178 | -81.19623 | 4484 ft | 280 kts | 0° |
| 2026-05-03 21:56 | 43.11030 | -81.18676 | 6104 ft | 291 kts | 29° |
| 2026-05-03 21:56 | 43.12459 | -81.16663 | 7642 ft | 302 kts | 56° |
| 2026-05-03 21:57 | 43.13230 | -81.13954 | 9074 ft | 312 kts | 76° |
| 2026-05-03 21:57 | 43.13746 | -81.11043 | 9951 ft | 317 kts | 74° |
| 2026-05-03 21:57 | 43.14458 | -81.08099 | 10443 ft | 342 kts | 66° |
| 2026-05-03 21:57 | 43.15500 | -81.05035 | 10741 ft | 362 kts | 60° |
| 2026-05-03 21:58 | 43.16742 | -81.02028 | 10899 ft | 363 kts | 56° |
| 2026-05-03 21:58 | 43.18069 | -80.99075 | 10995 ft | 364 kts | 55° |
| 2026-05-03 21:58 | 43.19423 | -80.96141 | 11003 ft | 364 kts | 54° |
| 2026-05-03 21:58 | 43.20779 | -80.93207 | 10999 ft | 365 kts | 54° |
| 2026-05-03 21:59 | 43.22137 | -80.90278 | 11002 ft | 365 kts | 54° |
| 2026-05-03 21:59 | 43.23475 | -80.87359 | 11002 ft | 366 kts | 54° |
| 2026-05-03 21:59 | 43.24836 | -80.84352 | 11002 ft | 366 kts | 55° |
| 2026-05-03 21:59 | 43.26158 | -80.81423 | 11004 ft | 366 kts | 54° |
| 2026-05-03 22:00 | 43.27513 | -80.78418 | 11002 ft | 366 kts | 54° |
| 2026-05-03 22:00 | 43.28839 | -80.75481 | 11001 ft | 367 kts | 54° |
| 2026-05-03 22:00 | 43.30184 | -80.72504 | 11003 ft | 367 kts | 54° |
| 2026-05-03 22:00 | 43.31528 | -80.69525 | 11001 ft | 367 kts | 54° |
| 2026-05-03 22:01 | 43.32873 | -80.66542 | 11004 ft | 368 kts | 54° |
| 2026-05-03 22:01 | 43.34233 | -80.63521 | 11000 ft | 367 kts | 54° |
| 2026-05-03 22:01 | 43.35559 | -80.60572 | 10998 ft | 367 kts | 54° |
| 2026-05-03 22:01 | 43.36904 | -80.57579 | 10998 ft | 368 kts | 54° |
| 2026-05-03 22:02 | 43.37963 | -80.55222 | 10997 ft | 367 kts | 54° |
| 2026-05-03 22:02 | 43.38423 | -80.54195 | 11002 ft | 368 kts | 54° |
| 2026-05-03 22:02 | 43.38827 | -80.53293 | 10999 ft | 368 kts | 54° |
| 2026-05-03 22:02 | 43.40166 | -80.50305 | 10995 ft | 368 kts | 54° |
| 2026-05-03 22:03 | 43.41507 | -80.47309 | 10996 ft | 367 kts | 54° |
| 2026-05-03 22:03 | 43.42849 | -80.44309 | 10999 ft | 368 kts | 54° |
| 2026-05-03 22:03 | 43.44186 | -80.41316 | 10996 ft | 367 kts | 54° |
| 2026-05-03 22:03 | 43.45502 | -80.38292 | 10997 ft | 369 kts | 58° |
| 2026-05-03 22:04 | 43.46543 | -80.35043 | 10998 ft | 372 kts | 66° |
| 2026-05-03 22:04 | 43.47459 | -80.31715 | 10998 ft | 373 kts | 65° |
| 2026-05-03 22:04 | 43.48388 | -80.28380 | 10944 ft | 371 kts | 65° |
| 2026-05-03 22:04 | 43.49313 | -80.25060 | 10487 ft | 371 kts | 65° |
| 2026-05-03 22:05 | 43.50225 | -80.21783 | 10243 ft | 359 kts | 65° |
| 2026-05-03 22:05 | 43.51095 | -80.18644 | 10083 ft | 343 kts | 65° |
| 2026-05-03 22:05 | 43.51913 | -80.15627 | 9907 ft | 329 kts | 65° |
| 2026-05-03 22:05 | 43.52696 | -80.12688 | 9475 ft | 325 kts | 65° |
| 2026-05-03 22:06 | 43.53473 | -80.09776 | 8970 ft | 324 kts | 66° |
| 2026-05-03 22:06 | 43.54245 | -80.06881 | 8512 ft | 321 kts | 65° |
| 2026-05-03 22:06 | 43.55010 | -80.04009 | 8146 ft | 316 kts | 66° |
| 2026-05-03 22:06 | 43.55773 | -80.01143 | 8015 ft | 319 kts | 65° |
| 2026-05-03 22:07 | 43.56532 | -79.98289 | 7972 ft | 317 kts | 65° |
| 2026-05-03 22:07 | 43.57280 | -79.95474 | 7970 ft | 317 kts | 66° |
| 2026-05-03 22:07 | 43.58043 | -79.92605 | 7973 ft | 319 kts | 65° |
| 2026-05-03 22:07 | 43.58799 | -79.89746 | 7974 ft | 317 kts | 65° |
| 2026-05-03 22:08 | 43.59375 | -79.86797 | 7977 ft | 320 kts | 78° |
| 2026-05-03 22:08 | 43.59506 | -79.83725 | 7976 ft | 322 kts | 88° |
| 2026-05-03 22:08 | 43.59516 | -79.80645 | 7976 ft | 321 kts | 88° |
| 2026-05-03 22:08 | 43.59534 | -79.77571 | 7965 ft | 320 kts | 88° |
| 2026-05-03 22:09 | 43.59557 | -79.74491 | 7980 ft | 322 kts | 88° |
| 2026-05-03 22:09 | 43.59580 | -79.71406 | 7954 ft | 321 kts | 87° |
| 2026-05-03 22:09 | 43.59603 | -79.68343 | 7724 ft | 318 kts | 88° |
| 2026-05-03 22:10 | 43.59647 | -79.62284 | 6898 ft | 313 kts | 88° |
| 2026-05-03 22:10 | 43.59659 | -79.59273 | 6420 ft | 313 kts | 88° |
| 2026-05-03 22:10 | 43.59690 | -79.56285 | 5965 ft | 310 kts | 82° |
| 2026-05-03 22:10 | 43.60310 | -79.53493 | 5494 ft | 301 kts | 55° |
| 2026-05-03 22:11 | 43.61574 | -79.51284 | 5125 ft | 290 kts | 40° |
| 2026-05-03 22:11 | 43.62994 | -79.49289 | 5003 ft | 294 kts | 38° |
| 2026-05-03 22:11 | 43.64440 | -79.47308 | 4975 ft | 291 kts | 38° |
| 2026-05-03 22:11 | 43.65856 | -79.45327 | 4909 ft | 289 kts | 39° |
| 2026-05-03 22:12 | 43.67256 | -79.43328 | 4550 ft | 289 kts | 40° |
| 2026-05-03 22:12 | 43.68646 | -79.41321 | 4178 ft | 287 kts | 41° |
| 2026-05-03 22:12 | 43.70019 | -79.39319 | 3731 ft | 286 kts | 41° |
| 2026-05-03 22:12 | 43.71376 | -79.37334 | 3305 ft | 284 kts | 42° |
| 2026-05-03 22:13 | 43.72722 | -79.35361 | 3057 ft | 282 kts | 41° |
| 2026-05-03 22:13 | 43.74041 | -79.33420 | 3112 ft | 266 kts | 41° |
| 2026-05-03 22:13 | 43.75295 | -79.31578 | 3148 ft | 263 kts | 41° |
| 2026-05-03 22:13 | 43.76534 | -79.29755 | 3400 ft | 248 kts | 41° |
| 2026-05-03 22:14 | 43.77659 | -79.28085 | 3206 ft | 233 kts | 40° |
| 2026-05-03 22:14 | 43.78736 | -79.26498 | 3050 ft | 218 kts | 40° |
| 2026-05-03 22:14 | 43.79716 | -79.25054 | 2971 ft | 194 kts | 40° |
| 2026-05-03 22:14 | 43.80694 | -79.24068 | 2967 ft | 154 kts | 4° |
| 2026-05-03 22:15 | 43.81571 | -79.24237 | 2971 ft | 117 kts | 310° |
| 2026-05-03 22:15 | 43.81926 | -79.25167 | 2976 ft | 107 kts | 277° |
| 2026-05-03 22:15 | 43.81914 | -79.26197 | 2971 ft | 109 kts | 263° |
| 2026-05-03 22:15 | 43.81662 | -79.27186 | 2979 ft | 111 kts | 249° |
| 2026-05-03 22:16 | 43.81426 | -79.28180 | 2971 ft | 108 kts | 261° |
| 2026-05-03 22:16 | 43.81301 | -79.29210 | 2972 ft | 109 kts | 262° |
| 2026-05-03 22:16 | 43.81173 | -79.30243 | 2972 ft | 109 kts | 261° |
| 2026-05-03 22:16 | 43.81017 | -79.31266 | 2976 ft | 107 kts | 259° |
| 2026-05-03 22:17 | 43.80838 | -79.32258 | 2971 ft | 106 kts | 258° |
| 2026-05-03 22:17 | 43.80645 | -79.33252 | 2970 ft | 107 kts | 258° |
| 2026-05-03 22:17 | 43.80444 | -79.34249 | 2976 ft | 108 kts | 258° |
| 2026-05-03 22:17 | 43.80243 | -79.35248 | 2974 ft | 107 kts | 258° |
| 2026-05-03 22:18 | 43.80045 | -79.36245 | 2970 ft | 108 kts | 257° |
| 2026-05-03 22:18 | 43.79843 | -79.37257 | 2969 ft | 108 kts | 258° |
| 2026-05-03 22:18 | 43.79644 | -79.38264 | 2971 ft | 108 kts | 257° |
| 2026-05-03 22:18 | 43.79443 | -79.39265 | 2975 ft | 108 kts | 257° |
| 2026-05-03 22:19 | 43.79242 | -79.40256 | 2973 ft | 107 kts | 257° |
| 2026-05-03 22:19 | 43.79039 | -79.41262 | 2974 ft | 110 kts | 257° |
| 2026-05-03 22:19 | 43.78830 | -79.42288 | 2975 ft | 111 kts | 258° |
| 2026-05-03 22:19 | 43.78578 | -79.43291 | 2970 ft | 111 kts | 249° |
| 2026-05-03 22:20 | 43.78154 | -79.44196 | 2973 ft | 114 kts | 238° |
| 2026-05-03 22:20 | 43.77622 | -79.45016 | 2972 ft | 114 kts | 234° |
| 2026-05-03 22:20 | 43.77071 | -79.45813 | 2969 ft | 116 kts | 234° |
| 2026-05-03 22:20 | 43.76513 | -79.46631 | 2970 ft | 117 kts | 234° |
| 2026-05-03 22:21 | 43.75955 | -79.47444 | 2952 ft | 117 kts | 234° |
| 2026-05-03 22:21 | 43.75395 | -79.48259 | 2831 ft | 117 kts | 234° |
| 2026-05-03 22:21 | 43.74841 | -79.49068 | 2681 ft | 117 kts | 234° |
| 2026-05-03 22:21 | 43.74278 | -79.49890 | 2519 ft | 119 kts | 233° |
| 2026-05-03 22:22 | 43.73708 | -79.50720 | 2366 ft | 118 kts | 232° |
| 2026-05-03 22:22 | 43.73155 | -79.51524 | 2202 ft | 114 kts | 233° |
| 2026-05-03 22:22 | 43.72587 | -79.52357 | 2046 ft | 121 kts | 232° |
| 2026-05-03 22:22 | 43.72009 | -79.53196 | 1876 ft | 120 kts | 231° |
| 2026-05-03 22:23 | 43.71443 | -79.54020 | 1711 ft | 117 kts | 231° |
| 2026-05-03 22:23 | 43.70897 | -79.54815 | 1557 ft | 110 kts | 231° |
| 2026-05-03 22:23 | 43.70393 | -79.55548 | 1412 ft | 102 kts | 231° |
| 2026-05-03 22:23 | 43.69884 | -79.56290 | 1271 ft | 109 kts | 229° |
| 2026-05-03 22:24 | 43.69366 | -79.57046 | 1111 ft | 106 kts | 229° |
| 2026-05-03 22:24 | 43.68863 | -79.57777 | 984 ft | 105 kts | 229° |
| 2026-05-03 22:24 | 43.68360 | -79.58511 | 830 ft | 108 kts | 228° |
| 2026-05-03 22:24 | 43.67831 | -79.59266 | 702 ft | 110 kts | 229° |
| 2026-05-03 22:25 | 43.67310 | -79.60029 | 562 ft | 104 kts | 231° |
| 2026-05-03 22:25 | 43.66900 | -79.60650 | 551 ft | 73 kts | 226° |
| 2026-05-03 22:25 | 43.66635 | -79.61031 | 548 ft | 58 kts | 226° |
| 2026-05-03 22:25 | 43.66414 | -79.61457 | 540 ft | 52 kts | 251° |
| 2026-05-03 22:26 | 43.66392 | -79.61718 | 548 ft | 1 kts | 321° |
| 2026-05-03 22:26 | 43.66499 | -79.61856 | 542 ft | 28 kts | 317° |
| 2026-05-03 22:26 | 43.66656 | -79.61990 | 541 ft | 20 kts | 351° |
| 2026-05-03 22:26 | 43.66806 | -79.61845 | 543 ft | 36 kts | 43° |
| 2026-05-03 22:27 | 43.67003 | -79.61597 | 558 ft | 35 kts | 43° |
| 2026-05-03 22:27 | 43.67064 | -79.61520 | 558 ft | 13 kts | 38° |
| 2026-05-03 22:27 | 43.67239 | -79.61268 | 557 ft | 29 kts | 44° |
| 2026-05-03 22:27 | 43.67352 | -79.61275 | 549 ft | 12 kts | 312° |
| 2026-05-03 22:28 | 43.67417 | -79.61453 | 557 ft | 21 kts | 318° |
| 2026-05-03 22:28 | 43.67533 | -79.61598 | 556 ft | 24 kts | 316° |
| 2026-05-03 22:28 | 43.67650 | -79.61756 | 559 ft | 24 kts | 317° |
| 2026-05-03 22:28 | 43.67779 | -79.61921 | 569 ft | 26 kts | 316° |
| 2026-05-03 22:29 | 43.67877 | -79.62050 | 565 ft | 0 kts | 320° |
| 2026-05-03 22:29 | 43.67905 | -79.62063 | 563 ft | 10 kts | 350° |
| 2026-05-03 22:29 | 43.67993 | -79.61958 | 558 ft | 26 kts | 78° |
| 2026-05-03 22:29 | 43.67996 | -79.61773 | 568 ft | 12 kts | 121° |